createdAt,value
2023-02-15T00:00:16.493Z,7
2023-02-15T00:05:16.404Z,6
2023-02-15T00:10:17.972Z,6
2023-02-15T00:15:17.157Z,7
2023-02-15T00:20:16.432Z,6
2023-02-15T00:25:16.487Z,6
2023-02-15T00:30:17.392Z,6
2023-02-15T00:35:16.407Z,5
2023-02-15T00:40:16.868Z,7
2023-02-15T00:45:17.406Z,7
2023-02-15T00:50:16.523Z,6
2023-02-15T00:55:16.681Z,5
2023-02-15T01:00:16.589Z,5
2023-02-15T01:05:16.732Z,5
2023-02-15T01:10:17.028Z,6
2023-02-15T01:15:16.847Z,6
2023-02-15T01:20:16.623Z,4
2023-02-15T01:25:16.666Z,5
2023-02-15T01:30:16.719Z,5
2023-02-15T01:35:16.682Z,4
2023-02-15T01:40:16.785Z,3
2023-02-15T01:45:16.654Z,4
2023-02-15T01:50:17.167Z,6
2023-02-15T01:55:16.900Z,6
2023-02-15T02:00:17.712Z,7
2023-02-15T02:05:16.998Z,6
2023-02-15T02:10:16.811Z,8
2023-02-15T02:15:16.696Z,8
2023-02-15T02:20:16.766Z,6
2023-02-15T02:25:17.261Z,7
2023-02-15T02:30:17.996Z,7
2023-02-15T02:35:17.958Z,6
2023-02-15T02:40:17.914Z,5
2023-02-15T02:45:17.847Z,5
2023-02-15T02:50:18.080Z,4
2023-02-15T02:55:18.442Z,4
2023-02-15T03:00:17.992Z,4
2023-02-15T03:05:18.071Z,4
2023-02-15T03:10:18.032Z,4
2023-02-15T03:15:17.840Z,3
2023-02-15T03:20:17.938Z,3
2023-02-15T03:25:18.019Z,1
2023-02-15T03:30:18.169Z,2
2023-02-15T03:35:17.951Z,2
2023-02-15T03:40:17.988Z,2
2023-02-15T03:45:17.951Z,2
2023-02-15T03:50:18.097Z,2
2023-02-15T03:55:18.129Z,4
2023-02-15T04:00:19.790Z,2
2023-02-15T04:05:18.024Z,3
2023-02-15T04:10:18.605Z,5
2023-02-15T04:15:18.322Z,6
2023-02-15T04:20:18.130Z,5
2023-02-15T04:25:18.072Z,6
2023-02-15T04:30:18.204Z,5
2023-02-15T04:35:18.261Z,5
2023-02-15T04:40:19.647Z,6
2023-02-15T04:45:18.067Z,5
2023-02-15T04:50:18.384Z,4
2023-02-15T04:55:18.196Z,5
2023-02-15T05:00:17.256Z,6
2023-02-15T05:05:17.211Z,6
2023-02-15T05:10:17.744Z,6
2023-02-15T05:15:17.204Z,6
2023-02-15T05:20:17.300Z,7
2023-02-15T05:25:17.727Z,6
2023-02-15T05:30:17.478Z,5
2023-02-15T05:35:17.531Z,4
2023-02-15T05:40:17.573Z,4
2023-02-15T05:45:17.483Z,4
2023-02-15T05:50:17.264Z,4
2023-02-15T05:55:17.413Z,5
2023-02-15T06:00:18.325Z,4
2023-02-15T06:05:18.470Z,3
2023-02-15T06:10:17.442Z,3
2023-02-15T06:15:17.326Z,4
2023-02-15T06:20:17.798Z,3
2023-02-15T06:25:17.196Z,3
2023-02-15T06:30:17.616Z,4
2023-02-15T06:35:17.517Z,4
2023-02-15T06:40:17.725Z,4
2023-02-15T06:45:18.343Z,5
2023-02-15T06:50:17.516Z,5
2023-02-15T06:55:17.668Z,5
2023-02-15T07:00:17.518Z,5
2023-02-15T07:05:17.657Z,4
2023-02-15T07:10:17.638Z,5
2023-02-15T07:15:17.511Z,3
2023-02-15T07:20:17.643Z,4
2023-02-15T07:25:17.556Z,5
2023-02-15T07:30:18.392Z,5
2023-02-15T07:35:17.555Z,7
2023-02-15T07:40:17.719Z,7
2023-02-15T07:45:17.669Z,8
2023-02-15T07:50:17.630Z,7
2023-02-15T07:55:18.100Z,7
2023-02-15T08:00:18.615Z,7
2023-02-15T08:05:17.848Z,8
2023-02-15T08:10:17.829Z,9
2023-02-15T08:15:17.818Z,9
2023-02-15T08:20:17.793Z,8
2023-02-15T08:25:17.847Z,8
2023-02-15T08:30:17.901Z,9
2023-02-15T08:35:17.693Z,9
2023-02-15T08:40:20.840Z,9
2023-02-15T08:45:17.977Z,9
2023-02-15T08:50:17.841Z,10
2023-02-15T08:55:18.037Z,11
2023-02-15T09:00:17.825Z,12
2023-02-15T09:05:17.855Z,11
2023-02-15T09:10:18.128Z,12
2023-02-15T09:15:18.005Z,12
2023-02-15T09:20:18.005Z,12
2023-02-15T09:25:17.920Z,11
2023-02-15T09:30:17.977Z,12
2023-02-15T09:35:17.933Z,11
2023-02-15T09:40:18.042Z,12
2023-02-15T09:45:18.881Z,13
2023-02-15T09:50:18.383Z,13
2023-02-15T09:55:16.249Z,13
2023-02-15T10:00:18.963Z,14
2023-02-15T10:05:18.385Z,14
2023-02-15T10:10:18.279Z,13
2023-02-15T10:15:18.024Z,15
2023-02-15T10:20:18.124Z,15
2023-02-15T10:25:18.453Z,16
2023-02-15T10:30:18.238Z,17
2023-02-15T10:35:18.086Z,17
2023-02-15T10:40:18.178Z,18
2023-02-15T10:45:18.131Z,18
2023-02-15T10:50:18.291Z,17
2023-02-15T10:55:18.183Z,15
2023-02-15T11:00:18.647Z,16
2023-02-15T11:05:16.279Z,16
2023-02-15T11:10:18.409Z,16
2023-02-15T11:15:16.335Z,16
2023-02-15T11:20:16.421Z,17
2023-02-15T11:25:16.225Z,17
2023-02-15T11:30:16.368Z,18
2023-02-15T11:35:16.391Z,17
2023-02-15T11:40:16.540Z,17
2023-02-15T11:45:16.361Z,18
2023-02-15T11:50:16.483Z,17
2023-02-15T11:55:16.531Z,16
2023-02-15T12:00:17.227Z,13
2023-02-15T12:05:16.829Z,12
2023-02-15T12:10:16.838Z,14
2023-02-15T12:15:16.343Z,12
2023-02-15T12:20:16.522Z,11
2023-02-15T12:25:16.652Z,12
2023-02-15T12:30:16.524Z,12
2023-02-15T12:35:16.387Z,11
2023-02-15T12:40:16.658Z,11
2023-02-15T12:45:19.359Z,11
2023-02-15T12:50:16.672Z,11
2023-02-15T12:55:16.640Z,11
2023-02-15T13:00:16.504Z,10
2023-02-15T13:05:16.522Z,11
2023-02-15T13:10:16.901Z,10
2023-02-15T13:15:16.421Z,10
2023-02-15T13:20:16.730Z,10
2023-02-15T13:25:16.602Z,9
2023-02-15T13:30:16.727Z,9
2023-02-15T13:35:16.725Z,12
2023-02-15T13:40:16.816Z,13
2023-02-15T13:45:16.551Z,15
2023-02-15T13:50:16.568Z,16
2023-02-15T13:55:16.780Z,15
2023-02-15T14:00:17.814Z,16
2023-02-15T14:05:16.740Z,18
2023-02-15T14:10:17.179Z,17
2023-02-15T14:15:16.796Z,18
2023-02-15T14:20:16.741Z,18
2023-02-15T14:25:16.902Z,18
2023-02-15T14:30:16.987Z,20
2023-02-15T14:35:16.715Z,19
2023-02-15T14:40:16.900Z,18
2023-02-15T14:45:16.888Z,18
2023-02-15T14:50:16.924Z,20
2023-02-15T14:55:16.935Z,20
2023-02-15T15:00:16.832Z,21
2023-02-15T15:05:17.050Z,21
2023-02-15T15:10:17.081Z,21
2023-02-15T15:15:16.807Z,22
2023-02-15T15:20:16.881Z,23
2023-02-15T15:25:17.075Z,23
2023-02-15T15:30:16.968Z,22
2023-02-15T15:35:16.870Z,21
2023-02-15T15:40:17.181Z,21
2023-02-15T15:45:16.890Z,22
2023-02-15T15:50:17.045Z,21
2023-02-15T15:55:17.195Z,19
2023-02-15T16:00:17.774Z,18
2023-02-15T16:05:16.922Z,19
2023-02-15T16:10:17.211Z,19
2023-02-15T16:15:17.084Z,20
2023-02-15T16:20:17.296Z,19
2023-02-15T16:25:17.108Z,19
2023-02-15T16:30:17.128Z,19
2023-02-15T16:35:17.155Z,19
2023-02-15T16:40:17.375Z,19
2023-02-15T16:45:17.029Z,19
2023-02-15T16:50:17.302Z,19
2023-02-15T16:55:17.199Z,20
2023-02-15T17:00:17.229Z,20
2023-02-15T17:05:17.303Z,20
2023-02-15T17:10:17.268Z,20
2023-02-15T17:15:17.124Z,21
2023-02-15T17:20:17.847Z,21
2023-02-15T17:25:17.258Z,19
2023-02-15T17:30:17.361Z,19
2023-02-15T17:35:17.167Z,21
2023-02-15T17:40:17.374Z,23
2023-02-15T17:45:17.299Z,22
2023-02-15T17:50:17.269Z,25
2023-02-15T17:55:17.759Z,24
2023-02-15T18:00:18.497Z,25
2023-02-15T18:05:17.355Z,25
2023-02-15T18:10:17.464Z,24
2023-02-15T18:15:17.579Z,23
2023-02-15T18:20:17.404Z,20
2023-02-15T18:25:17.421Z,22
2023-02-15T18:30:17.789Z,23
2023-02-15T18:35:17.469Z,25
2023-02-15T18:40:17.674Z,26
2023-02-15T18:45:17.573Z,27
2023-02-15T18:50:17.544Z,28
2023-02-15T18:55:17.516Z,28
2023-02-15T19:00:17.470Z,26
2023-02-15T19:05:17.603Z,27
2023-02-15T19:10:17.688Z,27
2023-02-15T19:15:17.499Z,27
2023-02-15T19:20:17.587Z,27
2023-02-15T19:25:17.591Z,26
2023-02-15T19:30:17.705Z,25
2023-02-15T19:35:17.576Z,26
2023-02-15T19:40:17.842Z,30
2023-02-15T19:45:17.515Z,31
2023-02-15T19:50:17.789Z,31
2023-02-15T19:55:17.637Z,29
2023-02-15T20:00:22.290Z,29
2023-02-15T20:05:17.657Z,28
2023-02-15T20:10:17.667Z,30
2023-02-15T20:15:17.877Z,29
2023-02-15T20:20:17.855Z,28
2023-02-15T20:25:17.968Z,27
2023-02-15T20:30:17.903Z,28
2023-02-15T20:35:17.841Z,27
2023-02-15T20:40:17.752Z,25
2023-02-15T20:45:17.650Z,19
2023-02-15T20:50:17.909Z,11
2023-02-15T20:55:17.788Z,19
2023-02-15T21:00:17.971Z,17
2023-02-15T21:05:17.879Z,21
2023-02-15T21:10:17.966Z,23
2023-02-15T21:15:17.732Z,22
2023-02-15T21:20:17.966Z,24
2023-02-15T21:25:18.140Z,23
2023-02-15T21:30:18.039Z,23
2023-02-15T21:35:17.801Z,21
2023-02-15T21:40:18.114Z,22
2023-02-15T21:45:18.117Z,21
2023-02-15T21:50:18.420Z,21
2023-02-15T21:55:18.056Z,21
2023-02-15T22:00:19.296Z,22
2023-02-15T22:05:17.931Z,21
2023-02-15T22:10:19.518Z,22
2023-02-15T22:15:17.945Z,23
2023-02-15T22:20:17.989Z,23
2023-02-15T22:25:18.034Z,24
2023-02-15T22:30:18.073Z,24
2023-02-15T22:35:18.132Z,24
2023-02-15T22:40:18.243Z,25
2023-02-15T22:45:18.000Z,26
2023-02-15T22:50:18.044Z,25
2023-02-15T22:55:18.588Z,24
2023-02-15T23:00:18.044Z,24
2023-02-15T23:05:18.105Z,24
2023-02-15T23:10:18.667Z,21
2023-02-15T23:15:18.182Z,18
2023-02-15T23:20:18.639Z,18
2023-02-15T23:25:18.418Z,17
2023-02-15T23:30:16.317Z,16
2023-02-15T23:35:16.123Z,17
2023-02-15T23:40:16.372Z,16
2023-02-15T23:45:16.328Z,16
2023-02-15T23:50:16.218Z,16
2023-02-15T23:55:16.304Z,15
